Time;durP1;ratioP1;P1;durP2;ratioP2;P2;SDS_P1;SDS_P2;PMS_P1;PMS_P2;Temp;Humidity;BMP_temperature;BMP_pressure;BME280_temperature;BME280_humidity;BME280_pressure;Samples;Min_cycle;Max_cycle;Signal;HPM_P1;HPM_P2
2021/04/11 00:00:28;;;;;;;30.88;3.70;;;;;;;;;;5064514;28;20496;-58
2021/04/11 00:02:54;;;;;;;45.22;5.00;;;;;;;;;;5069924;28;20098;-57
2021/04/11 00:05:21;;;;;;;34.38;4.38;;;;;;;;;;5066476;28;20072;-57
2021/04/11 00:07:49;;;;;;;34.05;4.90;;;;;;;;;;5071871;28;20113;-56
2021/04/11 00:10:17;;;;;;;42.88;4.53;;;;;;;;;;5067456;28;20044;-57
2021/04/11 00:12:43;;;;;;;40.65;4.63;;;;;;;;;;5066158;28;20044;-58
2021/04/11 00:15:10;;;;;;;54.87;4.63;;;;;;;;;;5063087;28;20037;-57
2021/04/11 00:17:37;;;;;;;41.42;4.60;;;;;;;;;;5064235;28;20036;-56
2021/04/11 00:20:04;;;;;;;36.53;4.38;;;;;;;;;;5066407;28;20546;-57
2021/04/11 00:22:30;;;;;;;36.05;4.35;;;;;;;;;;5065013;28;20155;-57
2021/04/11 00:24:56;;;;;;;41.30;4.85;;;;;;;;;;5067150;28;20078;-58
2021/04/11 00:27:22;;;;;;;48.22;4.88;;;;;;;;;;5065537;28;20497;-57
2021/04/11 00:29:49;;;;;;;38.97;4.15;;;;;;;;;;5068805;28;20535;-57
2021/04/11 00:32:15;;;;;;;49.65;5.43;;;;;;;;;;5065401;28;20036;-57
2021/04/11 00:34:41;;;;;;;37.65;4.50;;;;;;;;;;5064978;28;20549;-57
2021/04/11 00:37:09;;;;;;;43.03;4.28;;;;;;;;;;5064356;28;20044;-56
2021/04/11 00:39:35;;;;;;;39.38;3.90;;;;;;;;;;5063429;28;20127;-56
2021/04/11 00:42:05;;;;;;;51.67;5.15;;;;;;;;;;5064667;28;20036;-55
2021/04/11 00:44:32;;;;;;;38.22;4.72;;;;;;;;;;5066791;28;20051;-57
2021/04/11 00:46:59;;;;;;;33.67;4.53;;;;;;;;;;5064277;28;20051;-56
2021/04/11 00:49:32;;;;;;;31.52;4.15;;;;;;;;;;5065382;28;20285;-57
2021/04/11 00:52:00;;;;;;;40.70;5.07;;;;;;;;;;5065406;28;20454;-57
2021/04/11 00:54:26;;;;;;;43.08;5.15;;;;;;;;;;5066599;28;20493;-56
2021/04/11 00:56:52;;;;;;;24.35;4.35;;;;;;;;;;5064756;28;20082;-57
2021/04/11 00:59:20;;;;;;;33.50;3.88;;;;;;;;;;5061339;28;20052;-59
2021/04/11 01:01:46;;;;;;;36.72;3.55;;;;;;;;;;5063922;28;20029;-57
2021/04/11 01:04:13;;;;;;;52.55;4.88;;;;;;;;;;5065744;28;20041;-57
2021/04/11 01:07:06;;;;;;;33.80;4.68;;;;;;;;;;5067519;28;20680;-57
2021/04/11 01:09:45;;;;;;;43.33;4.70;;;;;;;;;;5066906;28;20578;-56
2021/04/11 01:12:15;;;;;;;38.63;4.15;;;;;;;;;;5067623;28;20058;-57
2021/04/11 01:14:42;;;;;;;36.60;4.63;;;;;;;;;;5068684;28;20504;-57
2021/04/11 01:17:10;;;;;;;36.47;4.35;;;;;;;;;;5065485;28;20078;-57
2021/04/11 01:19:42;;;;;;;47.72;5.15;;;;;;;;;;5065925;28;20032;-58
2021/04/11 01:22:27;;;;;;;44.97;4.88;;;;;;;;;;5063494;28;20052;-58
2021/04/11 01:24:59;;;;;;;33.90;4.90;;;;;;;;;;5064987;28;20048;-57
2021/04/11 01:27:35;;;;;;;44.00;4.60;;;;;;;;;;5069478;28;20110;-56
2021/04/11 01:30:08;;;;;;;37.35;5.05;;;;;;;;;;5067844;28;20061;-58
2021/04/11 01:32:35;;;;;;;31.67;4.30;;;;;;;;;;5069465;28;20047;-56
2021/04/11 01:35:03;;;;;;;35.65;4.60;;;;;;;;;;5070364;28;20082;-55
2021/04/11 01:37:30;;;;;;;36.33;4.45;;;;;;;;;;5070007;28;20480;-57
2021/04/11 01:39:57;;;;;;;31.30;4.60;;;;;;;;;;5072994;28;20064;-56
2021/04/11 01:42:23;;;;;;;39.70;4.72;;;;;;;;;;5069486;28;20044;-57
2021/04/11 01:44:51;;;;;;;42.35;4.40;;;;;;;;;;5073281;28;20041;-57
2021/04/11 01:47:19;;;;;;;52.45;4.90;;;;;;;;;;5068056;28;20170;-55
2021/04/11 01:49:46;;;;;;;38.55;4.80;;;;;;;;;;5071845;28;20480;-56
2021/04/11 01:52:30;;;;;;;33.58;4.28;;;;;;;;;;5066553;28;20360;-57
2021/04/11 01:54:56;;;;;;;59.30;5.68;;;;;;;;;;5063710;28;20132;-56
2021/04/11 01:57:28;;;;;;;32.35;4.47;;;;;;;;;;5063347;28;20044;-56
2021/04/11 02:00:00;;;;;;;35.60;4.07;;;;;;;;;;5069256;28;20057;-57
2021/04/11 02:02:26;;;;;;;53.60;4.82;;;;;;;;;;5085087;28;20044;-55
2021/04/11 02:04:53;;;;;;;33.60;4.38;;;;;;;;;;5070608;28;20060;-56
2021/04/11 02:07:19;;;;;;;33.83;4.35;;;;;;;;;;5066200;28;20079;-57
2021/04/11 02:09:51;;;;;;;47.80;5.00;;;;;;;;;;5066950;28;20049;-56
2021/04/11 02:12:40;;;;;;;;;;;;;;;;;;5070191;28;20059;-56
2021/04/11 02:15:27;;;;;;;42.88;4.30;;;;;;;;;;5067600;28;20380;-57
2021/04/11 02:17:55;;;;;;;37.75;5.20;;;;;;;;;;5068627;28;20139;-57
2021/04/11 02:20:27;;;;;;;32.97;4.50;;;;;;;;;;5072726;28;20048;-55
2021/04/11 02:22:54;;;;;;;44.05;5.75;;;;;;;;;;5067214;28;20404;-57
2021/04/11 02:25:22;;;;;;;35.65;4.13;;;;;;;;;;5065379;28;20041;-57
2021/04/11 02:28:00;;;;;;;33.20;4.07;;;;;;;;;;5079136;28;20040;-57
2021/04/11 02:30:33;;;;;;;43.95;5.30;;;;;;;;;;5068616;28;20127;-57
2021/04/11 02:33:00;;;;;;;41.00;4.88;;;;;;;;;;5076755;28;20428;-53
2021/04/11 02:35:27;;;;;;;45.50;4.63;;;;;;;;;;5066802;28;20043;-57
2021/04/11 02:38:00;;;;;;;39.00;4.43;;;;;;;;;;5069998;28;20048;-55
2021/04/11 02:40:33;;;;;;;25.13;4.25;;;;;;;;;;5066677;28;20087;-56
2021/04/11 02:43:06;;;;;;;35.13;4.68;;;;;;;;;;5069901;28;20053;-56
2021/04/11 02:45:36;;;;;;;36.78;4.65;;;;;;;;;;5070951;28;20052;-56
2021/04/11 02:48:06;;;;;;;48.53;4.30;;;;;;;;;;5064571;28;20467;-57
2021/04/11 02:50:41;;;;;;;48.65;4.70;;;;;;;;;;5068417;28;20505;-56
2021/04/11 02:53:09;;;;;;;38.83;3.78;;;;;;;;;;5066012;28;20170;-57
2021/04/11 02:55:39;;;;;;;45.20;5.07;;;;;;;;;;5067766;28;20599;-57
2021/04/11 02:58:06;;;;;;;35.30;4.95;;;;;;;;;;5065216;28;20040;-58
2021/04/11 03:00:35;;;;;;;36.13;5.43;;;;;;;;;;5064367;28;20048;-57
2021/04/11 03:03:02;;;;;;;32.63;5.25;;;;;;;;;;5067046;28;20562;-57
2021/04/11 03:05:30;;;;;;;35.40;4.57;;;;;;;;;;5067707;28;20047;-56
2021/04/11 03:08:07;;;;;;;46.38;4.78;;;;;;;;;;5065061;28;20400;-57
2021/04/11 03:10:51;;;;;;;33.28;4.72;;;;;;;;;;5069415;28;20051;-57
2021/04/11 03:13:18;;;;;;;38.38;4.28;;;;;;;;;;5059544;28;20129;-56
2021/04/11 03:15:48;;;;;;;54.10;5.32;;;;;;;;;;5065992;28;20640;-55
2021/04/11 03:18:14;;;;;;;32.45;5.25;;;;;;;;;;5069662;28;20071;-57
2021/04/11 03:20:42;;;;;;;33.28;4.75;;;;;;;;;;5062787;28;20049;-57
2021/04/11 03:23:17;;;;;;;44.13;4.60;;;;;;;;;;5066246;28;20055;-56
2021/04/11 03:25:50;;;;;;;37.72;4.80;;;;;;;;;;5067579;28;20052;-56
2021/04/11 03:28:19;;;;;;;50.15;4.70;;;;;;;;;;5066650;28;20462;-57
2021/04/11 03:30:55;;;;;;;31.95;4.28;;;;;;;;;;5064981;28;20085;-56
2021/04/11 03:33:23;;;;;;;35.83;4.43;;;;;;;;;;5062321;28;20045;-57
2021/04/11 03:35:50;;;;;;;49.60;4.80;;;;;;;;;;5065612;28;20052;-57
2021/04/11 03:38:23;;;;;;;38.78;4.25;;;;;;;;;;5067303;28;20052;-56
2021/04/11 03:40:52;;;;;;;44.05;4.40;;;;;;;;;;5067965;28;20048;-56
2021/04/11 03:43:23;;;;;;;35.58;4.60;;;;;;;;;;5060999;28;20052;-56
2021/04/11 03:45:52;;;;;;;34.30;4.50;;;;;;;;;;5061186;28;20489;-57
2021/04/11 03:48:24;;;;;;;52.42;4.63;;;;;;;;;;5067584;28;20915;-57
2021/04/11 03:50:56;;;;;;;36.50;4.22;;;;;;;;;;5066468;28;20140;-56
2021/04/11 03:53:34;;;;;;;36.03;5.85;;;;;;;;;;5081784;28;20041;-55
2021/04/11 03:56:06;;;;;;;50.25;4.95;;;;;;;;;;5064188;28;20373;-56
2021/04/11 03:58:37;;;;;;;37.80;4.05;;;;;;;;;;5067674;28;20076;-56
2021/04/11 04:01:14;;;;;;;27.95;3.97;;;;;;;;;;5067959;28;20052;-58
2021/04/11 04:03:42;;;;;;;38.90;5.53;;;;;;;;;;5065208;28;20055;-56
2021/04/11 04:06:10;;;;;;;37.60;3.80;;;;;;;;;;5063519;28;20094;-58
2021/04/11 04:08:37;;;;;;;43.58;4.90;;;;;;;;;;5065394;28;20098;-57
2021/04/11 04:11:13;;;;;;;27.20;4.47;;;;;;;;;;5065430;28;20523;-55
2021/04/11 04:13:50;;;;;;;33.25;3.90;;;;;;;;;;5067704;28;20048;-56
2021/04/11 04:16:27;;;;;;;41.58;4.43;;;;;;;;;;5067140;28;20048;-56
2021/04/11 04:19:02;;;;;;;23.27;3.88;;;;;;;;;;5069672;28;20052;-57
2021/04/11 04:21:47;;;;;;;31.48;4.07;;;;;;;;;;5065404;28;20045;-57
2021/04/11 04:24:14;;;;;;;20.88;3.60;;;;;;;;;;5065631;28;20053;-56
2021/04/11 04:26:44;;;;;;;30.83;4.07;;;;;;;;;;5076081;28;20037;-57
2021/04/11 04:29:33;;;;;;;35.47;4.97;;;;;;;;;;5063226;28;20076;-58
2021/04/11 04:32:21;;;;;;;29.25;4.53;;;;;;;;;;5084078;28;20235;-56
2021/04/11 04:35:05;;;;;;;36.58;4.53;;;;;;;;;;5064056;28;20047;-57
2021/04/11 04:37:36;;;;;;;32.70;4.28;;;;;;;;;;5066952;28;20070;-57
2021/04/11 04:40:05;;;;;;;27.63;4.05;;;;;;;;;;5065603;28;20123;-55
2021/04/11 04:42:42;;;;;;;22.23;4.53;;;;;;;;;;5065496;28;20599;-57
2021/04/11 04:45:20;;;;;;;33.08;4.25;;;;;;;;;;5074054;28;20405;-57
2021/04/11 04:48:07;;;;;;;41.13;5.15;;;;;;;;;;5067510;28;20060;-56
2021/04/11 04:50:38;;;;;;;37.70;4.53;;;;;;;;;;5068589;28;20059;-54
2021/04/11 04:53:08;;;;;;;45.20;5.50;;;;;;;;;;5070459;28;20131;-57
2021/04/11 04:55:37;;;;;;;42.05;4.10;;;;;;;;;;5068216;28;20041;-56
2021/04/11 04:58:10;;;;;;;41.15;4.88;;;;;;;;;;5069384;28;20050;-56
2021/04/11 05:00:40;;;;;;;26.10;4.85;;;;;;;;;;5066591;28;20048;-58
2021/04/11 05:03:21;;;;;;;34.10;4.63;;;;;;;;;;5066044;28;20127;-58
2021/04/11 05:06:01;;;;;;;18.42;3.28;;;;;;;;;;5064162;28;20462;-58
2021/04/11 05:08:32;;;;;;;28.48;3.45;;;;;;;;;;5067117;28;20040;-58
2021/04/11 05:11:07;;;;;;;34.03;4.28;;;;;;;;;;5068468;28;20395;-57
2021/04/11 05:13:43;;;;;;;17.55;3.55;;;;;;;;;;5067880;28;20090;-58
2021/04/11 05:16:26;;;;;;;24.55;3.75;;;;;;;;;;5064864;28;20072;-58
2021/04/11 05:19:00;;;;;;;25.98;3.88;;;;;;;;;;5069824;28;20051;-57
2021/04/11 05:21:42;;;;;;;26.38;3.25;;;;;;;;;;5082921;28;20505;-57
2021/04/11 05:24:15;;;;;;;24.70;3.90;;;;;;;;;;5068263;28;20504;-56
2021/04/11 05:27:07;;;;;;;19.83;3.20;;;;;;;;;;5068537;28;20045;-57
2021/04/11 05:29:47;;;;;;;30.10;3.85;;;;;;;;;;5065216;28;20056;-57
2021/04/11 05:32:15;;;;;;;22.50;3.53;;;;;;;;;;5070111;28;20052;-56
2021/04/11 05:34:42;;;;;;;19.60;4.03;;;;;;;;;;5067434;28;20497;-56
2021/04/11 05:37:29;;;;;;;29.33;3.38;;;;;;;;;;5065538;28;20049;-56
2021/04/11 05:40:00;;;;;;;17.58;2.83;;;;;;;;;;5068846;28;20041;-56
2021/04/11 05:42:27;;;;;;;21.02;3.20;;;;;;;;;;5068030;28;20044;-57
2021/04/11 05:44:58;;;;;;;24.75;4.78;;;;;;;;;;5067532;28;20039;-58
2021/04/11 05:47:40;;;;;;;19.52;3.20;;;;;;;;;;5069805;28;20044;-57
2021/04/11 05:50:06;;;;;;;24.83;4.00;;;;;;;;;;5069461;28;20115;-55
2021/04/11 05:52:35;;;;;;;20.95;3.85;;;;;;;;;;5064809;28;20573;-57
2021/04/11 05:55:04;;;;;;;19.67;3.45;;;;;;;;;;5073286;28;20067;-51
2021/04/11 05:57:32;;;;;;;20.20;2.88;;;;;;;;;;5066871;28;20087;-57
2021/04/11 06:00:04;;;;;;;21.95;3.13;;;;;;;;;;5068686;28;20033;-57
2021/04/11 06:02:40;;;;;;;24.00;4.30;;;;;;;;;;5067458;28;20059;-57
2021/04/11 06:05:12;;;;;;;25.17;3.67;;;;;;;;;;5069575;28;20048;-58
2021/04/11 06:07:43;;;;;;;23.42;4.35;;;;;;;;;;5067817;28;20052;-58
2021/04/11 06:10:12;;;;;;;26.90;3.38;;;;;;;;;;5068204;28;20056;-57
2021/04/11 06:12:48;;;;;;;19.65;3.08;;;;;;;;;;5071336;28;20041;-57
2021/04/11 06:15:19;;;;;;;30.20;3.55;;;;;;;;;;5070366;28;20040;-56
2021/04/11 06:17:46;;;;;;;18.35;3.53;;;;;;;;;;5064266;28;20079;-58
2021/04/11 06:20:12;;;;;;;25.02;3.50;;;;;;;;;;5067398;28;20098;-58
2021/04/11 06:22:57;;;;;;;15.05;2.65;;;;;;;;;;5065959;28;20106;-58
2021/04/11 06:25:23;;;;;;;20.15;3.25;;;;;;;;;;5069427;28;20044;-57
2021/04/11 06:27:54;;;;;;;17.42;3.25;;;;;;;;;;5069458;28;20040;-58
2021/04/11 06:30:25;;;;;;;23.98;4.13;;;;;;;;;;5067991;28;20052;-58
2021/04/11 06:32:51;;;;;;;17.60;3.70;;;;;;;;;;5063379;28;20033;-58
2021/04/11 06:35:24;;;;;;;18.20;3.20;;;;;;;;;;5065657;28;20117;-58
2021/04/11 06:37:53;;;;;;;22.90;3.45;;;;;;;;;;5069195;28;20047;-59
2021/04/11 06:40:34;;;;;;;16.30;2.92;;;;;;;;;;5066825;28;20036;-58
2021/04/11 06:43:09;;;;;;;16.42;2.75;;;;;;;;;;5065576;28;20044;-59
2021/04/11 06:45:59;;;;;;;22.92;3.10;;;;;;;;;;5068308;28;20399;-59
2021/04/11 06:48:38;;;;;;;16.92;3.00;;;;;;;;;;5065395;28;20131;-59
2021/04/11 06:51:26;;;;;;;25.55;3.90;;;;;;;;;;5065008;28;20514;-59
2021/04/11 06:54:11;;;;;;;19.98;3.72;;;;;;;;;;5069698;28;20641;-59
2021/04/11 06:56:51;;;;;;;20.40;3.08;;;;;;;;;;5067437;28;20063;-59
2021/04/11 06:59:37;;;;;;;17.38;3.15;;;;;;;;;;5068135;28;20098;-59
2021/04/11 07:02:36;;;;;;;14.45;3.67;;;;;;;;;;5069568;28;20060;-58
2021/04/11 07:05:35;;;;;;;18.67;2.90;;;;;;;;;;5062252;28;20047;-59
2021/04/11 07:08:14;;;;;;;22.30;3.55;;;;;;;;;;5044212;28;20079;-59
2021/04/11 07:10:48;;;;;;;26.20;3.78;;;;;;;;;;5069083;28;20044;-59
2021/04/11 07:13:20;;;;;;;23.58;3.65;;;;;;;;;;5065841;28;20499;-57
2021/04/11 07:16:11;;;;;;;26.52;3.42;;;;;;;;;;5066929;28;20266;-59
2021/04/11 07:18:54;;;;;;;18.65;3.60;;;;;;;;;;5066667;28;20060;-60
2021/04/11 07:21:33;;;;;;;18.55;2.85;;;;;;;;;;5068831;28;20377;-59
2021/04/11 07:24:20;;;;;;;25.55;3.22;;;;;;;;;;5064624;28;20048;-59
2021/04/11 07:27:05;;;;;;;21.05;2.97;;;;;;;;;;5066763;28;20538;-59
2021/04/11 07:29:50;;;;;;;18.33;3.00;;;;;;;;;;5068298;28;20463;-59
2021/04/11 07:32:35;;;;;;;18.38;3.25;;;;;;;;;;5066427;28;20454;-58
2021/04/11 07:35:10;;;;;;;17.85;2.83;;;;;;;;;;5065910;28;20124;-59
2021/04/11 07:37:55;;;;;;;16.75;3.83;;;;;;;;;;5064578;28;20163;-59
2021/04/11 07:40:21;;;;;;;21.13;3.60;;;;;;;;;;5065719;28;20048;-59
2021/04/11 07:43:09;;;;;;;13.82;3.00;;;;;;;;;;5064464;28;20424;-59
2021/04/11 07:45:54;;;;;;;23.75;3.55;;;;;;;;;;5069981;28;20048;-59
2021/04/11 07:48:29;;;;;;;18.25;3.25;;;;;;;;;;5065559;28;20533;-59
2021/04/11 07:51:10;;;;;;;12.80;2.63;;;;;;;;;;5069015;28;20496;-59
2021/04/11 07:53:45;;;;;;;19.52;3.47;;;;;;;;;;5061939;28;20130;-59
2021/04/11 07:56:14;;;;;;;18.17;2.95;;;;;;;;;;5067403;28;20511;-59
2021/04/11 07:58:58;;;;;;;17.30;3.10;;;;;;;;;;5065427;28;20506;-59
2021/04/11 08:01:43;;;;;;;23.77;3.72;;;;;;;;;;5068647;28;20113;-59
2021/04/11 08:04:31;;;;;;;18.20;3.42;;;;;;;;;;5065889;28;20112;-59
2021/04/11 08:07:08;;;;;;;29.63;4.00;;;;;;;;;;5069293;28;20072;-59
2021/04/11 08:09:49;;;;;;;22.77;3.83;;;;;;;;;;5065846;28;20049;-59
2021/04/11 08:12:15;;;;;;;20.65;3.10;;;;;;;;;;5065890;28;20492;-59
2021/04/11 08:14:50;;;;;;;17.38;3.03;;;;;;;;;;5066793;28;20484;-59
2021/04/11 08:17:20;;;;;;;16.30;2.40;;;;;;;;;;5067666;28;20044;-59
2021/04/11 08:20:05;;;;;;;16.55;2.53;;;;;;;;;;5068104;28;20500;-59
2021/04/11 08:22:42;;;;;;;17.58;2.38;;;;;;;;;;5062651;28;20093;-59
2021/04/11 08:25:15;;;;;;;15.13;2.50;;;;;;;;;;5066310;28;20041;-59
2021/04/11 08:28:05;;;;;;;17.48;3.15;;;;;;;;;;5065467;28;20427;-59
2021/04/11 08:30:45;;;;;;;13.25;2.45;;;;;;;;;;5067676;28;20037;-59
2021/04/11 08:33:27;;;;;;;16.85;3.13;;;;;;;;;;5066809;28;20044;-59
2021/04/11 08:36:10;;;;;;;21.52;2.83;;;;;;;;;;5063153;28;20036;-58
2021/04/11 08:38:55;;;;;;;20.10;3.17;;;;;;;;;;5064110;28;20103;-58
2021/04/11 08:41:40;;;;;;;15.80;2.97;;;;;;;;;;5065682;28;20033;-59
2021/04/11 08:44:32;;;;;;;12.98;2.95;;;;;;;;;;5066710;28;20075;-58
2021/04/11 08:47:10;;;;;;;11.85;3.00;;;;;;;;;;5067677;28;20036;-58
2021/04/11 08:49:37;;;;;;;;;;;;;;;;;;5066545;28;20120;-59
2021/04/11 08:52:03;;;;;;;10.10;2.28;;;;;;;;;;5066672;28;19935;-59
2021/04/11 08:54:47;;;;;;;18.25;2.85;;;;;;;;;;5063464;28;20049;-59
2021/04/11 08:57:19;;;;;;;18.33;3.25;;;;;;;;;;5060508;28;20255;-57
2021/04/11 08:59:55;;;;;;;15.23;2.60;;;;;;;;;;5065929;28;20049;-59
2021/04/11 09:02:44;;;;;;;18.95;3.03;;;;;;;;;;5066579;28;20101;-59
2021/04/11 09:05:10;;;;;;;;;;;;;;;;;;5064938;28;20032;-57
2021/04/11 09:07:40;;;;;;;13.25;3.08;;;;;;;;;;5068216;28;19924;-58
2021/04/11 09:10:13;;;;;;;14.30;2.38;;;;;;;;;;5068060;28;20048;-58
2021/04/11 09:12:50;;;;;;;18.80;2.97;;;;;;;;;;5065874;28;20047;-58
2021/04/11 09:15:17;;;;;;;22.45;3.13;;;;;;;;;;5067709;28;20056;-58
2021/04/11 09:18:03;;;;;;;17.77;2.60;;;;;;;;;;5062609;28;20045;-58
2021/04/11 09:20:32;;;;;;;16.60;2.75;;;;;;;;;;5062023;28;20111;-59
2021/04/11 09:23:15;;;;;;;8.23;2.40;;;;;;;;;;5065179;28;20131;-59
2021/04/11 09:25:44;;;;;;;17.02;2.88;;;;;;;;;;5067072;28;20083;-58
2021/04/11 09:28:33;;;;;;;16.60;3.03;;;;;;;;;;5065165;28;20708;-59
2021/04/11 09:31:18;;;;;;;13.95;2.65;;;;;;;;;;5063670;28;20041;-58
2021/04/11 09:34:07;;;;;;;13.90;3.05;;;;;;;;;;5070314;28;20079;-58
2021/04/11 09:36:33;;;;;;;9.50;2.70;;;;;;;;;;5074884;28;20044;-58
2021/04/11 09:39:06;;;;;;;20.15;3.08;;;;;;;;;;5072814;28;20127;-58
2021/04/11 09:41:37;;;;;;;16.05;2.63;;;;;;;;;;5068946;28;20077;-58
2021/04/11 09:44:22;;;;;;;15.65;2.75;;;;;;;;;;5070179;28;20083;-58
2021/04/11 09:47:06;;;;;;;15.02;3.20;;;;;;;;;;5072373;28;20476;-58
2021/04/11 09:49:45;;;;;;;13.85;3.22;;;;;;;;;;5071171;28;20079;-58
2021/04/11 09:52:29;;;;;;;14.95;2.78;;;;;;;;;;5068948;28;20044;-59
2021/04/11 09:55:28;;;;;;;14.68;2.63;;;;;;;;;;5070236;28;20071;-58
2021/04/11 09:58:04;;;;;;;13.82;2.72;;;;;;;;;;5089354;28;20271;-57
2021/04/11 10:00:49;;;;;;;18.33;2.90;;;;;;;;;;5083182;28;20048;-59
2021/04/11 10:03:36;;;;;;;9.40;2.72;;;;;;;;;;5072392;28;20044;-59
2021/04/11 10:06:02;;;;;;;14.57;2.70;;;;;;;;;;5071391;28;20037;-59
2021/04/11 10:08:31;;;;;;;15.65;3.00;;;;;;;;;;5069342;28;20601;-58
2021/04/11 10:10:57;;;;;;;14.63;2.55;;;;;;;;;;5068686;28;20127;-59
2021/04/11 10:13:24;;;;;;;21.55;2.60;;;;;;;;;;5071846;28;20064;-59
2021/04/11 10:15:57;;;;;;;14.98;3.13;;;;;;;;;;5069475;28;20090;-59
2021/04/11 10:18:30;;;;;;;12.07;2.60;;;;;;;;;;5065299;28;20084;-58
2021/04/11 10:21:07;;;;;;;14.32;2.90;;;;;;;;;;5068510;28;20055;-59
2021/04/11 10:23:51;;;;;;;14.20;2.55;;;;;;;;;;5068056;28;20046;-59
2021/04/11 10:26:23;;;;;;;16.55;3.05;;;;;;;;;;5065869;28;20527;-59
2021/04/11 10:29:09;;;;;;;17.42;2.92;;;;;;;;;;5069737;28;20056;-59
2021/04/11 10:31:45;;;;;;;11.02;2.83;;;;;;;;;;5066820;28;20063;-58
2021/04/11 10:34:12;;;;;;;14.52;2.75;;;;;;;;;;5069901;28;20048;-57
2021/04/11 10:36:45;;;;;;;9.60;2.65;;;;;;;;;;5063304;28;20086;-57
2021/04/11 10:39:22;;;;;;;10.10;2.20;;;;;;;;;;5070436;28;20041;-59
2021/04/11 10:42:07;;;;;;;14.82;3.10;;;;;;;;;;5068368;28;20059;-58
2021/04/11 10:44:36;;;;;;;7.93;2.20;;;;;;;;;;5065407;28;20036;-58
2021/04/11 10:47:02;;;;;;;11.93;2.78;;;;;;;;;;5070526;28;20093;-58
2021/04/11 10:49:48;;;;;;;11.00;2.10;;;;;;;;;;5068771;28;20075;-58
2021/04/11 10:52:24;;;;;;;11.18;2.88;;;;;;;;;;5066798;28;20045;-58
2021/04/11 10:54:50;;;;;;;13.20;2.70;;;;;;;;;;5065919;28;20041;-58
2021/04/11 10:57:22;;;;;;;9.05;2.05;;;;;;;;;;5069041;28;20045;-58
2021/04/11 10:59:55;;;;;;;14.38;2.58;;;;;;;;;;5067935;28;20063;-58
2021/04/11 11:02:40;;;;;;;10.45;1.98;;;;;;;;;;5068209;28;20043;-58
2021/04/11 11:05:09;;;;;;;9.73;1.75;;;;;;;;;;5065859;28;20055;-58
2021/04/11 11:07:49;;;;;;;8.43;2.13;;;;;;;;;;5068700;28;20547;-58
2021/04/11 11:10:33;;;;;;;9.43;1.83;;;;;;;;;;5070934;28;20090;-57
2021/04/11 11:13:02;;;;;;;8.75;2.20;;;;;;;;;;5069401;28;20055;-58
2021/04/11 11:15:46;;;;;;;14.82;2.00;;;;;;;;;;5066945;28;20047;-58
2021/04/11 11:18:32;;;;;;;8.25;1.80;;;;;;;;;;5069673;28;20052;-58
2021/04/11 11:20:59;;;;;;;3.20;1.25;;;;;;;;;;5065270;28;20079;-58
2021/04/11 11:23:34;;;;;;;5.18;1.77;;;;;;;;;;5070564;28;20048;-58
2021/04/11 11:26:09;;;;;;;7.57;1.98;;;;;;;;;;5066421;28;20045;-56
2021/04/11 11:29:08;;;;;;;3.20;1.17;;;;;;;;;;5069480;28;20067;-54
2021/04/11 11:31:58;;;;;;;6.72;2.00;;;;;;;;;;5071392;28;20045;-53
2021/04/11 11:34:37;;;;;;;7.40;2.00;;;;;;;;;;5067979;28;20118;-53
2021/04/11 11:37:13;;;;;;;5.43;2.00;;;;;;;;;;5069847;28;20072;-47
2021/04/11 11:40:00;;;;;;;8.52;1.50;;;;;;;;;;5066249;28;20093;-47
2021/04/11 11:42:41;;;;;;;13.57;2.03;;;;;;;;;;5067956;28;20040;-50
2021/04/11 11:45:27;;;;;;;6.93;1.88;;;;;;;;;;5065514;28;20045;-47
2021/04/11 11:48:12;;;;;;;5.28;1.58;;;;;;;;;;5065657;28;20095;-47
2021/04/11 11:50:58;;;;;;;6.75;1.90;;;;;;;;;;5065594;28;20095;-49
2021/04/11 11:53:27;;;;;;;6.90;2.03;;;;;;;;;;5067837;28;20114;-49
2021/04/11 11:56:03;;;;;;;6.18;1.50;;;;;;;;;;5066974;28;20064;-49
2021/04/11 11:58:35;;;;;;;5.57;1.90;;;;;;;;;;5065710;28;20492;-48
2021/04/11 12:01:17;;;;;;;5.50;2.30;;;;;;;;;;5066996;28;20427;-48
2021/04/11 12:03:43;;;;;;;9.63;2.00;;;;;;;;;;5065643;28;20070;-48
2021/04/11 12:06:17;;;;;;;6.10;2.00;;;;;;;;;;5065063;28;20048;-49
2021/04/11 12:09:03;;;;;;;9.52;1.98;;;;;;;;;;5063175;28;20033;-47
2021/04/11 12:11:42;;;;;;;6.20;2.05;;;;;;;;;;5062216;28;20048;-49
2021/04/11 12:14:29;;;;;;;2.78;1.70;;;;;;;;;;5064746;28;20098;-48
2021/04/11 12:16:59;;;;;;;5.25;1.52;;;;;;;;;;5065724;28;20137;-47
2021/04/11 12:19:39;;;;;;;11.07;2.22;;;;;;;;;;5065383;28;20519;-47
2021/04/11 12:22:15;;;;;;;7.03;2.08;;;;;;;;;;5067072;28;20098;-46
2021/04/11 12:24:54;;;;;;;5.55;2.05;;;;;;;;;;5064232;28;20044;-47
2021/04/11 12:27:25;;;;;;;7.00;2.03;;;;;;;;;;5062141;28;20170;-48
2021/04/11 12:29:51;;;;;;;10.05;2.38;;;;;;;;;;5066933;28;20056;-46
2021/04/11 12:32:27;;;;;;;7.53;2.17;;;;;;;;;;5063641;28;20045;-47
2021/04/11 12:34:57;;;;;;;14.63;2.53;;;;;;;;;;5069514;28;20068;-48
2021/04/11 12:37:30;;;;;;;2.88;1.67;;;;;;;;;;5064249;28;20041;-46
2021/04/11 12:40:17;;;;;;;4.32;1.83;;;;;;;;;;5062750;28;20048;-47
2021/04/11 12:43:01;;;;;;;4.65;1.50;;;;;;;;;;5067904;28;20581;-45
2021/04/11 12:45:41;;;;;;;5.40;2.15;;;;;;;;;;5067451;28;20373;-48
2021/04/11 12:48:09;;;;;;;5.03;1.88;;;;;;;;;;5068057;28;20094;-46
2021/04/11 12:50:38;;;;;;;7.30;2.17;;;;;;;;;;5066922;28;20123;-47
2021/04/11 12:53:04;;;;;;;8.13;2.28;;;;;;;;;;5065263;28;20500;-48
2021/04/11 12:55:35;;;;;;;4.70;2.03;;;;;;;;;;5065379;28;20047;-46
2021/04/11 12:58:30;;;;;;;8.35;2.30;;;;;;;;;;5063741;28;20137;-46
2021/04/11 13:01:11;;;;;;;12.23;2.40;;;;;;;;;;5063895;28;20040;-47
2021/04/11 13:03:44;;;;;;;4.45;2.20;;;;;;;;;;5066365;28;20068;-48
2021/04/11 13:06:29;;;;;;;13.05;2.50;;;;;;;;;;5064064;28;20055;-48
2021/04/11 13:09:14;;;;;;;9.82;2.58;;;;;;;;;;5069746;28;20079;-47
2021/04/11 13:11:43;;;;;;;8.38;2.33;;;;;;;;;;5072191;28;20052;-48
2021/04/11 13:14:21;;;;;;;5.85;2.47;;;;;;;;;;5077897;28;20120;-48
2021/04/11 13:16:51;;;;;;;9.38;2.25;;;;;;;;;;5067772;28;20049;-46
2021/04/11 13:19:23;;;;;;;5.88;2.10;;;;;;;;;;5085206;28;20061;-47
2021/04/11 13:22:12;;;;;;;4.10;2.40;;;;;;;;;;5073137;28;20048;-46
2021/04/11 13:24:42;;;;;;;5.95;2.17;;;;;;;;;;5067461;28;20055;-47
2021/04/11 13:27:20;;;;;;;4.88;2.05;;;;;;;;;;5066294;28;20052;-46
2021/04/11 13:30:09;;;;;;;5.75;2.25;;;;;;;;;;5064949;28;20048;-46
2021/04/11 13:32:54;;;;;;;5.18;2.03;;;;;;;;;;5068579;28;20499;-46
2021/04/11 13:35:21;;;;;;;6.35;1.83;;;;;;;;;;5068225;28;20078;-49
2021/04/11 13:37:49;;;;;;;5.17;1.90;;;;;;;;;;5066927;28;20116;-48
2021/04/11 13:40:17;;;;;;;4.50;1.92;;;;;;;;;;5067676;28;20129;-48
2021/04/11 13:42:51;;;;;;;2.88;1.90;;;;;;;;;;5071234;28;20056;-48
2021/04/11 13:45:36;;;;;;;6.00;2.10;;;;;;;;;;5072256;28;20052;-48
2021/04/11 13:48:03;;;;;;;6.00;2.35;;;;;;;;;;5068412;28;20515;-45
2021/04/11 13:50:39;;;;;;;4.65;2.42;;;;;;;;;;5071842;28;20539;-50
2021/04/11 13:53:18;;;;;;;5.75;1.88;;;;;;;;;;5070813;28;20052;-47
2021/04/11 13:55:44;;;;;;;;;;;;;;;;;;5067950;28;20090;-46
2021/04/11 13:58:16;;;;;;;4.00;2.10;;;;;;;;;;5068780;28;19920;-46
2021/04/11 14:01:02;;;;;;;4.18;2.00;;;;;;;;;;5065748;28;20060;-46
2021/04/11 14:03:41;;;;;;;5.82;1.85;;;;;;;;;;5069694;28;20049;-46
2021/04/11 14:06:21;;;;;;;3.47;1.83;;;;;;;;;;5063813;28;20518;-47
2021/04/11 14:08:54;;;;;;;3.53;1.85;;;;;;;;;;5066406;28;20041;-47
2021/04/11 14:11:20;;;;;;;3.35;1.85;;;;;;;;;;5070938;28;20045;-50
2021/04/11 14:14:05;;;;;;;3.45;2.20;;;;;;;;;;5064081;28;20130;-46
2021/04/11 14:16:50;;;;;;;1.88;1.50;;;;;;;;;;5068101;28;20049;-48
2021/04/11 14:19:25;;;;;;;4.00;2.08;;;;;;;;;;5068754;28;20098;-49
2021/04/11 14:22:11;;;;;;;6.90;1.95;;;;;;;;;;5067113;28;20040;-47
2021/04/11 14:24:37;;;;;;;3.55;1.92;;;;;;;;;;5065047;28;20041;-46
2021/04/11 14:27:23;;;;;;;3.63;2.00;;;;;;;;;;5063722;28;20068;-46
2021/04/11 14:30:08;;;;;;;7.20;2.30;;;;;;;;;;5065855;28;20045;-46
2021/04/11 14:32:42;;;;;;;3.75;2.22;;;;;;;;;;5070046;28;20059;-46
2021/04/11 14:35:08;;;;;;;7.57;2.42;;;;;;;;;;5069886;28;20032;-47
2021/04/11 14:37:40;;;;;;;3.25;2.13;;;;;;;;;;5071403;28;20103;-46
2021/04/11 14:40:15;;;;;;;2.92;2.00;;;;;;;;;;5067278;28;20052;-46
2021/04/11 14:42:47;;;;;;;5.03;1.98;;;;;;;;;;5066378;28;20052;-47
2021/04/11 14:45:17;;;;;;;4.05;2.40;;;;;;;;;;5065066;28;20067;-47
2021/04/11 14:47:48;;;;;;;7.95;2.40;;;;;;;;;;5063637;28;20131;-49
2021/04/11 14:50:33;;;;;;;4.50;2.15;;;;;;;;;;5062891;28;20044;-49
2021/04/11 14:53:02;;;;;;;4.13;2.42;;;;;;;;;;5068661;28;20061;-49
2021/04/11 14:55:29;;;;;;;4.93;2.30;;;;;;;;;;5070170;28;20085;-47
2021/04/11 14:57:59;;;;;;;4.10;2.20;;;;;;;;;;5064643;28;20056;-46
2021/04/11 15:00:26;;;;;;;7.38;2.70;;;;;;;;;;5065283;28;20488;-46
2021/04/11 15:03:01;;;;;;;3.88;2.95;;;;;;;;;;5067078;28;20041;-46
2021/04/11 15:05:33;;;;;;;5.97;3.22;;;;;;;;;;5065410;28;20051;-46
2021/04/11 15:08:06;;;;;;;5.18;3.08;;;;;;;;;;5065977;28;20040;-46
2021/04/11 15:10:52;;;;;;;3.90;3.05;;;;;;;;;;5064074;28;20033;-46
2021/04/11 15:13:39;;;;;;;6.10;2.60;;;;;;;;;;5068199;28;20488;-48
2021/04/11 15:16:08;;;;;;;4.75;2.13;;;;;;;;;;5067740;28;20133;-46
2021/04/11 15:18:54;;;;;;;3.70;2.05;;;;;;;;;;5070059;28;20726;-48
2021/04/11 15:21:39;;;;;;;2.78;2.08;;;;;;;;;;5069262;28;20036;-47